Time;durP1;ratioP1;P1;durP2;ratioP2;P2;SDS_P1;SDS_P2;PMS_P1;PMS_P2;Temp;Humidity;BMP_temperature;BMP_pressure;BME280_temperature;BME280_humidity;BME280_pressure;Samples;Min_cycle;Max_cycle;Signal;HPM_P1;HPM_P2
2021/11/30 00:02:16;;;;;;;1.02;0.90;;;17.70;52.30;;;;;;4981719;28;20049;-57
2021/11/30 00:04:41;;;;;;;0.95;0.80;;;17.70;52.30;;;;;;4982654;28;20536;-58
2021/11/30 00:07:06;;;;;;;1.02;0.80;;;17.70;52.40;;;;;;4981946;28;20045;-55
2021/11/30 00:12:06;;;;;;;1.23;0.90;;;17.70;52.30;;;;;;4981940;28;20100;-55
2021/11/30 00:14:32;;;;;;;0.85;0.70;;;17.70;52.00;;;;;;4982230;28;20034;-57
2021/11/30 00:16:58;;;;;;;1.50;0.80;;;17.70;52.00;;;;;;4982103;28;20035;-56
2021/11/30 00:19:24;;;;;;;1.38;0.88;;;17.70;52.60;;;;;;4981795;28;20026;-57
2021/11/30 00:21:50;;;;;;;1.20;0.80;;;17.70;52.00;;;;;;4965129;28;20034;-54
2021/11/30 00:24:15;;;;;;;0.85;0.75;;;17.70;51.90;;;;;;4981762;28;20612;-54
2021/11/30 00:26:41;;;;;;;0.80;0.80;;;17.70;51.90;;;;;;4984953;28;20134;-53
2021/11/30 00:29:06;;;;;;;0.82;0.82;;;17.70;51.90;;;;;;4984705;28;20536;-58
2021/11/30 00:31:32;;;;;;;0.90;0.90;;;17.80;51.90;;;;;;4985099;28;20034;-55
2021/11/30 00:33:57;;;;;;;1.05;0.95;;;17.70;52.00;;;;;;4985221;28;20023;-56
2021/11/30 00:36:23;;;;;;;2.10;0.77;;;17.70;51.80;;;;;;4984839;28;20034;-54
2021/11/30 00:38:48;;;;;;;0.80;0.70;;;17.70;51.90;;;;;;4985318;28;20037;-58
2021/11/30 00:41:14;;;;;;;0.75;0.75;;;17.70;51.80;;;;;;4984953;28;20030;-58
2021/11/30 00:43:40;;;;;;;1.17;0.77;;;17.70;51.90;;;;;;4984164;28;20510;-57
2021/11/30 00:46:34;;;;;;;1.23;0.65;;;17.70;51.80;;;;;;4985152;28;20443;-56
2021/11/30 00:48:53;;;;;;;0.95;0.93;;;17.70;51.80;;;;;;4969741;28;20039;-57
2021/11/30 00:51:19;;;;;;;0.70;0.70;;;17.70;51.90;;;;;;4967612;28;20088;-55
2021/11/30 00:53:46;;;;;;;1.05;0.75;;;17.70;51.80;;;;;;4984769;28;20117;-56
2021/11/30 00:56:12;;;;;;;1.08;0.85;;;17.70;51.80;;;;;;4984797;28;20034;-55
2021/11/30 00:58:38;;;;;;;1.95;0.90;;;17.70;51.80;;;;;;4966549;28;20034;-54
2021/11/30 01:01:04;;;;;;;0.70;0.70;;;17.70;51.80;;;;;;4984419;28;20238;-56
2021/11/30 01:03:29;;;;;;;0.95;0.77;;;17.70;51.80;;;;;;4984820;28;20085;-56
2021/11/30 01:05:55;;;;;;;1.02;0.90;;;17.70;51.80;;;;;;4966919;28;20593;-52
2021/11/30 01:08:20;;;;;;;0.95;0.57;;;17.70;51.80;;;;;;4985275;28;20031;-55
2021/11/30 01:10:46;;;;;;;0.70;0.68;;;17.70;51.80;;;;;;4983473;28;20057;-54
2021/11/30 01:13:11;;;;;;;0.70;0.70;;;17.70;51.80;;;;;;4984623;28;20046;-56
2021/11/30 01:15:38;;;;;;;0.82;0.80;;;17.70;51.90;;;;;;4984900;28;20096;-58
2021/11/30 01:18:03;;;;;;;1.38;0.95;;;17.70;51.80;;;;;;4984629;28;20030;-53
2021/11/30 01:20:29;;;;;;;1.70;0.70;;;17.70;51.80;;;;;;4983932;28;20396;-56
2021/11/30 01:22:56;;;;;;;0.80;0.80;;;17.70;51.80;;;;;;4983587;28;20033;-58
2021/11/30 01:25:21;;;;;;;1.48;0.80;;;17.70;51.70;;;;;;4984513;28;20030;-59
2021/11/30 01:27:47;;;;;;;0.70;0.70;;;17.70;51.80;;;;;;4985149;28;20457;-56
2021/11/30 01:30:14;;;;;;;1.23;0.80;;;17.70;51.70;;;;;;4984135;28;20758;-56
2021/11/30 01:32:43;;;;;;;0.65;0.65;;;17.70;51.80;;;;;;4984765;28;20125;-57
2021/11/30 01:35:09;;;;;;;1.15;0.70;;;17.70;51.80;;;;;;4983039;28;20065;-55
2021/11/30 01:37:34;;;;;;;0.90;0.70;;;17.70;51.80;;;;;;4965074;28;20046;-57
2021/11/30 01:40:00;;;;;;;0.80;0.75;;;17.70;51.70;;;;;;4983367;28;20089;-57
2021/11/30 01:42:26;;;;;;;0.93;0.70;;;17.70;51.80;;;;;;4983681;28;20467;-56
2021/11/30 01:44:55;;;;;;;0.93;0.70;;;17.70;51.50;;;;;;4984847;28;20027;-54
2021/11/30 01:49:56;;;;;;;1.17;0.80;;;17.70;51.60;;;;;;4983118;28;20103;-54
2021/11/30 01:52:21;;;;;;;0.80;0.60;;;17.70;51.50;;;;;;4966705;28;20034;-63
2021/11/30 01:54:50;;;;;;;0.93;0.68;;;17.70;51.50;;;;;;4984522;28;20447;-53
2021/11/30 01:57:16;;;;;;;0.95;0.85;;;17.70;51.50;;;;;;4983549;28;20495;-57
2021/11/30 01:59:42;;;;;;;0.70;0.70;;;17.60;51.50;;;;;;4983184;28;20046;-56
2021/11/30 02:02:08;;;;;;;0.80;0.80;;;17.60;51.50;;;;;;4983621;28;20042;-53
2021/11/30 02:04:33;;;;;;;0.80;0.65;;;17.60;51.50;;;;;;4984153;28;20036;-53
2021/11/30 02:06:58;;;;;;;0.70;0.70;;;17.50;51.50;;;;;;4983425;28;20639;-57
2021/11/30 02:09:24;;;;;;;2.25;0.80;;;17.60;51.60;;;;;;4983540;28;20117;-56
2021/11/30 02:11:50;;;;;;;1.20;1.10;;;17.50;51.60;;;;;;4983958;28;20033;-49
2021/11/30 02:14:16;;;;;;;0.98;0.88;;;17.50;51.60;;;;;;4983658;28;20114;-57
2021/11/30 02:16:41;;;;;;;0.50;0.50;;;17.50;51.60;;;;;;4983859;28;20714;-57
2021/11/30 02:19:07;;;;;;;1.15;0.93;;;17.50;51.60;;;;;;4983423;28;20038;-56
2021/11/30 02:21:35;;;;;;;0.63;0.50;;;17.50;51.60;;;;;;4983369;28;20037;-54
2021/11/30 02:24:01;;;;;;;2.00;0.55;;;17.60;51.60;;;;;;4983180;28;20093;-51
2021/11/30 02:26:28;;;;;;;0.60;0.60;;;17.50;51.50;;;;;;4966461;28;20023;-56
2021/11/30 02:28:56;;;;;;;0.60;0.60;;;17.60;51.50;;;;;;4981968;28;20061;-56
2021/11/30 02:31:23;;;;;;;0.90;0.73;;;17.50;51.40;;;;;;4966258;28;20027;-62
2021/11/30 02:33:48;;;;;;;0.55;0.50;;;17.60;51.50;;;;;;4983839;28;20041;-54
2021/11/30 02:36:25;;;;;;;1.30;0.73;;;17.60;51.50;;;;;;4982847;28;20049;-56
2021/11/30 02:38:52;;;;;;;0.85;0.70;;;17.60;51.50;;;;;;4974608;28;20066;-52
2021/11/30 02:41:17;;;;;;;0.88;0.75;;;17.60;51.50;;;;;;4950387;28;20030;-56
2021/11/30 02:43:43;;;;;;;1.00;0.70;;;17.60;51.40;;;;;;4982966;28;20467;-56
2021/11/30 02:46:08;;;;;;;0.65;0.60;;;17.60;51.40;;;;;;4982805;28;20100;-56
2021/11/30 02:48:34;;;;;;;0.75;0.65;;;17.60;51.30;;;;;;4982296;28;20447;-56
2021/11/30 02:51:05;;;;;;;0.95;0.85;;;17.70;51.40;;;;;;4982137;28;20061;-55
2021/11/30 02:53:31;;;;;;;0.93;0.85;;;17.70;51.10;;;;;;4966581;28;20121;-55
2021/11/30 02:55:56;;;;;;;0.88;0.70;;;17.70;51.10;;;;;;4982806;28;20058;-57
2021/11/30 02:58:22;;;;;;;0.70;0.70;;;17.70;51.10;;;;;;4983255;28;20030;-56
2021/11/30 03:00:47;;;;;;;1.75;0.60;;;17.80;51.10;;;;;;4964081;28;20443;-54
2021/11/30 03:03:14;;;;;;;0.70;0.70;;;17.80;51.10;;;;;;4982786;28;20062;-58
2021/11/30 03:05:40;;;;;;;0.82;0.60;;;17.80;51.10;;;;;;4982837;28;20061;-55
2021/11/30 03:08:05;;;;;;;1.00;0.80;;;17.80;51.10;;;;;;4995662;23;20034;-50
2021/11/30 03:10:31;;;;;;;0.80;0.60;;;17.80;51.10;;;;;;5005202;28;20457;-52
2021/11/30 03:12:56;;;;;;;0.60;0.50;;;17.80;51.10;;;;;;4970564;28;20030;-54
2021/11/30 03:15:23;;;;;;;1.02;0.80;;;17.80;51.10;;;;;;5000061;28;20092;-54
2021/11/30 03:17:49;;;;;;;0.70;0.70;;;17.80;51.10;;;;;;4982791;28;20561;-52
2021/11/30 03:20:15;;;;;;;0.90;0.77;;;17.80;51.10;;;;;;4999204;28;20022;-51
2021/11/30 03:22:42;;;;;;;0.55;0.50;;;17.80;51.10;;;;;;4999625;28;20108;-52
2021/11/30 03:25:08;;;;;;;0.77;0.60;;;17.80;51.00;;;;;;4982942;28;20308;-51
2021/11/30 03:27:34;;;;;;;0.93;0.60;;;17.80;51.10;;;;;;4999974;28;20061;-49
2021/11/30 03:30:01;;;;;;;0.73;0.73;;;17.70;51.10;;;;;;4999786;28;20454;-53
2021/11/30 03:35:15;;;;;;;0.80;0.60;;;17.70;51.00;;;;;;4962264;28;20135;-55
2021/11/30 03:37:40;;;;;;;1.00;0.55;;;17.70;51.10;;;;;;5000193;28;20096;-53
2021/11/30 03:40:10;;;;;;;0.90;0.70;;;17.70;51.10;;;;;;4999566;28;20034;-49
2021/11/30 03:42:35;;;;;;;1.75;0.60;;;17.70;51.10;;;;;;4983049;28;20201;-54
2021/11/30 03:45:01;;;;;;;0.88;0.70;;;17.70;51.30;;;;;;5000917;28;20083;-53
2021/11/30 03:47:26;;;;;;;0.70;0.70;;;17.60;51.20;;;;;;4999898;28;20109;-53
2021/11/30 03:49:52;;;;;;;0.55;0.50;;;17.60;51.30;;;;;;4983005;28;20136;-55
2021/11/30 03:52:17;;;;;;;0.70;0.70;;;17.60;51.30;;;;;;4998971;28;20314;-51
2021/11/30 03:54:43;;;;;;;0.70;0.60;;;17.60;51.30;;;;;;4999655;28;20399;-54
2021/11/30 03:57:08;;;;;;;0.68;0.68;;;17.60;51.30;;;;;;4999978;28;20030;-50
2021/11/30 03:59:34;;;;;;;0.50;0.50;;;17.60;51.30;;;;;;4999643;28;20038;-51
2021/11/30 04:01:59;;;;;;;0.60;0.60;;;17.60;52.00;;;;;;5003953;28;20233;-52
2021/11/30 04:04:29;;;;;;;0.82;0.68;;;17.60;51.40;;;;;;5002953;28;20034;-53
2021/11/30 04:06:55;;;;;;;1.15;0.85;;;17.60;51.30;;;;;;5003317;28;20034;-54
2021/11/30 04:09:21;;;;;;;0.70;0.60;;;17.60;51.40;;;;;;5003763;28;20045;-56
2021/11/30 04:11:47;;;;;;;0.85;0.70;;;17.60;51.40;;;;;;5004162;28;20026;-54
2021/11/30 04:14:12;;;;;;;0.65;0.65;;;17.60;51.50;;;;;;4986665;28;20073;-56
2021/11/30 04:16:39;;;;;;;0.60;0.60;;;17.60;51.60;;;;;;5003438;28;20030;-52
2021/11/30 04:19:05;;;;;;;0.98;0.60;;;17.60;51.50;;;;;;4986222;28;20784;-56
2021/11/30 04:21:30;;;;;;;0.85;0.77;;;17.60;51.60;;;;;;4985784;28;20101;-55
2021/11/30 04:23:56;;;;;;;0.80;0.70;;;17.60;51.60;;;;;;5004300;28;20038;-55
2021/11/30 04:26:21;;;;;;;1.85;0.80;;;17.60;51.60;;;;;;4992167;28;20018;-51
2021/11/30 04:28:47;;;;;;;0.75;0.63;;;17.60;51.60;;;;;;5006040;28;20033;-57
2021/11/30 04:31:12;;;;;;;0.82;0.75;;;17.60;51.60;;;;;;5003815;28;20593;-54
2021/11/30 04:33:38;;;;;;;0.77;0.63;;;17.60;51.60;;;;;;5003654;28;20631;-54
2021/11/30 04:36:06;;;;;;;0.70;0.70;;;17.60;51.60;;;;;;4986963;28;20113;-52
2021/11/30 04:38:35;;;;;;;0.77;0.70;;;17.60;51.70;;;;;;5004308;28;20080;-54
2021/11/30 04:41:00;;;;;;;1.13;0.90;;;17.60;51.70;;;;;;5002919;28;20237;-53
2021/11/30 04:43:33;;;;;;;0.70;0.63;;;17.60;51.70;;;;;;4976553;28;20511;-51
2021/11/30 04:46:00;;;;;;;0.70;0.70;;;17.60;51.70;;;;;;5001697;28;20514;-52
2021/11/30 04:48:26;;;;;;;0.70;0.70;;;17.60;51.80;;;;;;4985238;28;20040;-55
2021/11/30 04:50:53;;;;;;;0.95;0.82;;;17.60;51.80;;;;;;5002344;28;20109;-52
2021/11/30 04:53:24;;;;;;;0.95;0.80;;;17.60;51.70;;;;;;5004003;28;20030;-53
2021/11/30 04:55:51;;;;;;;0.68;0.68;;;17.60;51.80;;;;;;4994566;28;20034;-51
2021/11/30 04:58:16;;;;;;;1.40;0.82;;;17.60;51.80;;;;;;4985910;28;20034;-53
2021/11/30 05:00:42;;;;;;;1.00;0.90;;;17.60;51.80;;;;;;5002772;28;20042;-56
2021/11/30 05:03:09;;;;;;;1.05;0.80;;;17.60;51.90;;;;;;4986228;28;20036;-54
2021/11/30 05:05:34;;;;;;;0.65;0.65;;;17.60;51.80;;;;;;4968447;28;20056;-54
2021/11/30 05:08:00;;;;;;;0.77;0.77;;;17.60;51.80;;;;;;5002338;28;20511;-53
2021/11/30 05:10:25;;;;;;;0.90;0.90;;;17.60;51.80;;;;;;4968164;28;20115;-54
2021/11/30 05:12:51;;;;;;;0.90;0.80;;;17.60;51.80;;;;;;5002360;28;20022;-51
2021/11/30 05:15:16;;;;;;;0.65;0.60;;;17.60;51.80;;;;;;5002228;28;20030;-52
2021/11/30 05:17:42;;;;;;;0.75;0.60;;;17.60;51.70;;;;;;5002177;28;20181;-56
2021/11/30 05:20:08;;;;;;;0.80;0.70;;;17.60;51.70;;;;;;4984950;28;20581;-51
2021/11/30 05:22:34;;;;;;;1.02;0.90;;;17.60;51.70;;;;;;5002213;28;20053;-55
2021/11/30 05:24:59;;;;;;;0.98;0.82;;;17.70;51.70;;;;;;5002467;28;20663;-55
2021/11/30 05:27:26;;;;;;;0.90;0.70;;;17.70;51.70;;;;;;5001791;28;20045;-56
2021/11/30 05:29:52;;;;;;;2.30;1.00;;;17.70;51.70;;;;;;5002295;28;20035;-55
2021/11/30 05:32:19;;;;;;;3.65;0.65;;;17.70;51.60;;;;;;4985639;28;20036;-55
2021/11/30 05:34:44;;;;;;;1.58;0.65;;;17.70;51.60;;;;;;4985155;28;20399;-53
2021/11/30 05:37:10;;;;;;;1.77;1.00;;;17.70;51.60;;;;;;4985551;28;20033;-53
2021/11/30 05:39:35;;;;;;;1.80;1.40;;;17.80;51.60;;;;;;4984632;28;20030;-51
2021/11/30 05:42:01;;;;;;;6.25;2.67;;;17.80;51.80;;;;;;5002540;28;20117;-51
2021/11/30 05:44:26;;;;;;;5.93;2.63;;;17.80;51.80;;;;;;4975052;28;20053;-52
2021/11/30 05:46:52;;;;;;;8.73;2.50;;;17.80;51.80;;;;;;5002661;28;20125;-52
2021/11/30 05:49:18;;;;;;;10.15;2.72;;;17.80;51.80;;;;;;5002028;28;20026;-52
2021/11/30 05:51:43;;;;;;;6.15;2.45;;;17.80;51.80;;;;;;5001613;28;20497;-51
2021/11/30 05:54:09;;;;;;;4.93;2.00;;;17.80;51.90;;;;;;5002213;28;20038;-51
2021/11/30 05:56:35;;;;;;;5.75;1.98;;;17.70;51.80;;;;;;5001399;28;20037;-55
2021/11/30 05:59:00;;;;;;;8.57;2.20;;;17.80;51.90;;;;;;4983348;28;20034;-56
2021/11/30 06:01:28;;;;;;;5.70;2.28;;;17.80;51.80;;;;;;4968335;28;20026;-53
2021/11/30 06:04:00;;;;;;;5.07;2.22;;;17.80;51.90;;;;;;4984367;28;20036;-55
2021/11/30 06:06:33;;;;;;;5.32;2.10;;;17.80;51.80;;;;;;5001624;28;20114;-51
2021/11/30 06:08:59;;;;;;;4.68;2.28;;;17.80;51.90;;;;;;4983620;28;20049;-54
2021/11/30 06:11:25;;;;;;;5.55;1.98;;;17.80;51.90;;;;;;5015310;28;20034;-53
2021/11/30 06:13:51;;;;;;;7.40;2.15;;;17.80;52.00;;;;;;5002514;28;20022;-53
2021/11/30 06:16:16;;;;;;;5.65;2.38;;;17.80;51.90;;;;;;4968817;28;20033;-52
2021/11/30 06:18:42;;;;;;;13.32;3.85;;;17.80;51.90;;;;;;4999401;28;20022;-51
2021/11/30 06:21:08;;;;;;;34.80;12.20;;;17.80;52.00;;;;;;5001154;28;20042;-52
2021/11/30 06:23:34;;;;;;;36.92;14.52;;;17.80;52.60;;;;;;4984083;28;20030;-51
2021/11/30 06:25:59;;;;;;;33.28;14.82;;;17.80;52.70;;;;;;4984007;28;20029;-53
2021/11/30 06:28:25;;;;;;;42.50;14.93;;;17.90;52.80;;;;;;4983367;28;20307;-55
2021/11/30 06:30:51;;;;;;;41.50;14.68;;;17.90;52.80;;;;;;5001218;28;20030;-52
2021/11/30 06:33:17;;;;;;;39.47;14.27;;;17.80;52.90;;;;;;5001263;28;20025;-51
2021/11/30 06:35:43;;;;;;;33.63;12.60;;;17.80;53.10;;;;;;5000390;28;20572;-54
2021/11/30 06:38:08;;;;;;;33.70;11.73;;;17.80;53.20;;;;;;4983205;28;20067;-52
2021/11/30 06:40:34;;;;;;;27.73;9.95;;;17.80;53.10;;;;;;4983573;28;20041;-53
2021/11/30 06:42:59;;;;;;;26.25;9.50;;;17.80;53.10;;;;;;5000936;28;20038;-51
2021/11/30 06:45:25;;;;;;;26.17;10.13;;;17.70;53.10;;;;;;4982104;28;20044;-52
2021/11/30 06:47:50;;;;;;;24.33;8.75;;;17.70;53.20;;;;;;5001648;28;20037;-55
2021/11/30 06:50:16;;;;;;;20.15;7.55;;;17.70;54.00;;;;;;5000846;28;20826;-55
2021/11/30 06:52:43;;;;;;;21.42;7.82;;;17.70;53.80;;;;;;4981972;28;20030;-52
2021/11/30 06:55:09;;;;;;;20.48;7.85;;;17.60;53.90;;;;;;5001824;28;20117;-52
2021/11/30 06:57:35;;;;;;;20.10;7.25;;;17.60;54.00;;;;;;4983323;28;20121;-55
2021/11/30 07:00:04;;;;;;;19.23;7.03;;;17.60;53.90;;;;;;4983602;28;20065;-51
2021/11/30 07:02:30;;;;;;;13.35;6.30;;;17.60;53.80;;;;;;4986610;28;20064;-53
2021/11/30 07:04:58;;;;;;;23.20;6.80;;;17.50;53.80;;;;;;4993700;28;20030;-54
2021/11/30 07:07:34;;;;;;;15.02;5.72;;;17.50;53.90;;;;;;5001557;28;20038;-54
2021/11/30 07:12:50;;;;;;;16.73;6.35;;;17.50;53.70;;;;;;5001333;28;20034;-52
2021/11/30 07:15:11;;;;;;;18.40;5.97;;;17.50;53.70;;;;;;4999166;28;20046;-56
2021/11/30 07:17:37;;;;;;;16.25;6.13;;;17.50;53.60;;;;;;4983609;28;20099;-55
2021/11/30 07:20:04;;;;;;;13.80;5.32;;;17.50;53.50;;;;;;5000150;28;20129;-54
2021/11/30 07:22:30;;;;;;;13.35;5.57;;;17.50;53.50;;;;;;4998890;28;20121;-53
2021/11/30 07:24:56;;;;;;;13.23;4.95;;;17.50;53.50;;;;;;4966180;28;20769;-53
2021/11/30 07:27:22;;;;;;;11.55;4.28;;;17.50;53.50;;;;;;5000054;28;20057;-53
2021/11/30 07:29:47;;;;;;;14.60;4.78;;;17.50;53.40;;;;;;4998354;28;20053;-53
2021/11/30 07:32:13;;;;;;;10.55;4.53;;;17.50;53.40;;;;;;5000493;28;20053;-51
2021/11/30 07:34:39;;;;;;;7.18;4.15;;;17.60;53.40;;;;;;5000883;28;20484;-56
2021/11/30 07:37:05;;;;;;;8.38;3.42;;;17.50;53.20;;;;;;4999568;28;20030;-55
2021/11/30 07:39:30;;;;;;;11.02;4.20;;;17.60;53.20;;;;;;4983537;28;20652;-53
2021/11/30 07:41:56;;;;;;;11.05;4.03;;;17.60;53.10;;;;;;4999750;28;20107;-52
2021/11/30 07:44:21;;;;;;;12.90;3.72;;;17.60;53.00;;;;;;5001217;28;20041;-54
2021/11/30 07:46:47;;;;;;;10.90;3.85;;;17.60;52.90;;;;;;5000156;28;20028;-53
2021/11/30 07:49:12;;;;;;;7.22;3.30;;;17.70;52.80;;;;;;4999240;28;20515;-54
2021/11/30 07:51:39;;;;;;;9.55;3.95;;;17.70;52.70;;;;;;5000019;28;20034;-55
2021/11/30 07:54:06;;;;;;;7.35;3.47;;;17.70;52.60;;;;;;4983289;28;20046;-54
2021/11/30 07:56:32;;;;;;;7.03;3.20;;;17.70;52.60;;;;;;4983080;28;20033;-55
2021/11/30 07:58:58;;;;;;;9.15;3.15;;;17.70;52.50;;;;;;4981542;28;20069;-55
2021/11/30 08:01:23;;;;;;;8.55;3.35;;;17.70;52.50;;;;;;5000782;28;20169;-54
2021/11/30 08:03:49;;;;;;;8.65;3.17;;;17.70;52.40;;;;;;4999829;28;20125;-51
2021/11/30 08:06:15;;;;;;;7.43;3.03;;;17.80;52.40;;;;;;4982005;28;20034;-53
2021/11/30 08:08:42;;;;;;;6.90;3.38;;;17.80;52.40;;;;;;4982239;28;20042;-52
2021/11/30 08:11:08;;;;;;;7.15;2.95;;;17.80;52.40;;;;;;4966749;28;20038;-54
2021/11/30 08:13:33;;;;;;;4.72;2.88;;;17.80;52.30;;;;;;4998999;28;20502;-53
2021/11/30 08:15:59;;;;;;;6.07;2.30;;;17.70;52.30;;;;;;4998703;28;20034;-55
2021/11/30 08:18:24;;;;;;;5.03;3.03;;;17.70;52.40;;;;;;4999993;28;20026;-53
2021/11/30 08:20:50;;;;;;;5.38;2.60;;;17.70;52.30;;;;;;4999941;28;20044;-54
2021/11/30 08:23:16;;;;;;;4.85;2.47;;;17.70;52.30;;;;;;4982987;28;20040;-52
2021/11/30 08:25:41;;;;;;;6.07;2.70;;;17.70;52.30;;;;;;5000244;28;20403;-55
2021/11/30 08:28:07;;;;;;;4.65;2.50;;;17.70;52.20;;;;;;4982271;28;20044;-51
2021/11/30 08:30:33;;;;;;;4.55;2.15;;;17.70;52.30;;;;;;4982145;28;20713;-53
2021/11/30 08:32:59;;;;;;;4.70;2.03;;;17.70;52.20;;;;;;4999404;28;20037;-52
2021/11/30 08:35:24;;;;;;;5.97;2.47;;;17.70;52.30;;;;;;5001232;28;20030;-53
2021/11/30 08:37:50;;;;;;;4.22;1.83;;;17.70;52.20;;;;;;5000487;28;20030;-53
2021/11/30 08:40:15;;;;;;;4.22;2.50;;;17.70;52.20;;;;;;4999238;28;22268;-56
2021/11/30 08:42:41;;;;;;;4.28;2.65;;;17.80;52.20;;;;;;4998285;28;20030;-53
2021/11/30 08:45:07;;;;;;;4.53;2.20;;;17.80;52.10;;;;;;4983021;28;20041;-54
2021/11/30 08:47:32;;;;;;;4.00;1.90;;;17.80;52.10;;;;;;4984534;28;20611;-53
2021/11/30 08:49:58;;;;;;;4.25;2.10;;;17.80;52.20;;;;;;5003478;28;20029;-55
2021/11/30 08:52:27;;;;;;;4.45;1.88;;;17.80;52.10;;;;;;4985547;28;20034;-52
2021/11/30 08:54:54;;;;;;;4.00;1.80;;;17.80;52.00;;;;;;4992944;28;20041;-53
2021/11/30 08:57:20;;;;;;;5.57;1.75;;;17.80;52.00;;;;;;4985499;28;20045;-52
2021/11/30 08:59:45;;;;;;;5.00;1.80;;;17.80;52.10;;;;;;4968324;28;20124;-54
2021/11/30 09:02:11;;;;;;;4.78;1.80;;;17.80;52.10;;;;;;5002941;28;20103;-53
2021/11/30 09:04:36;;;;;;;2.67;1.42;;;17.80;52.00;;;;;;5002742;28;20026;-51
2021/11/30 09:07:02;;;;;;;2.92;1.38;;;17.80;52.00;;;;;;5002912;28;20030;-52
2021/11/30 09:09:27;;;;;;;3.28;1.40;;;17.80;52.00;;;;;;5001740;28;20042;-58
2021/11/30 09:11:53;;;;;;;3.63;1.40;;;17.80;52.00;;;;;;5003235;28;20069;-55
2021/11/30 09:16:47;;;;;;;7.75;1.65;;;17.70;52.40;;;;;;5015047;28;20616;-54
2021/11/30 09:19:12;;;;;;;3.78;1.77;;;17.80;52.00;;;;;;5018876;28;20041;-55
2021/11/30 09:21:38;;;;;;;2.80;1.40;;;17.70;52.00;;;;;;5018840;28;20543;-56
2021/11/30 09:24:03;;;;;;;4.10;1.40;;;17.70;52.60;;;;;;5020111;28;20029;-55
2021/11/30 09:26:29;;;;;;;2.95;1.50;;;17.70;51.90;;;;;;5019023;28;20061;-55
2021/11/30 09:28:54;;;;;;;3.08;1.40;;;17.80;51.80;;;;;;5020609;28;20030;-55
2021/11/30 09:31:20;;;;;;;3.55;1.35;;;17.80;51.90;;;;;;5021624;28;20410;-56
2021/11/30 09:33:45;;;;;;;2.40;1.10;;;17.70;51.80;;;;;;5022049;28;20502;-56
2021/11/30 09:36:11;;;;;;;3.00;1.10;;;17.70;51.90;;;;;;5022095;28;20053;-54
2021/11/30 09:38:39;;;;;;;1.75;1.23;;;17.70;51.90;;;;;;5022052;28;20478;-55
2021/11/30 09:41:05;;;;;;;2.38;1.25;;;17.70;51.90;;;;;;5008556;28;20091;-54
2021/11/30 09:43:37;;;;;;;2.13;1.40;;;17.70;51.80;;;;;;5020900;28;20034;-56
2021/11/30 09:46:03;;;;;;;2.35;1.00;;;17.70;51.90;;;;;;5001041;28;20064;-56
2021/11/30 09:48:29;;;;;;;1.60;0.95;;;17.70;52.00;;;;;;4982389;28;20030;-55
2021/11/30 09:50:54;;;;;;;2.92;1.45;;;17.70;51.80;;;;;;5003499;28;20030;-55
2021/11/30 09:53:20;;;;;;;1.90;1.23;;;17.70;51.80;;;;;;5022036;28;20478;-54
2021/11/30 09:55:47;;;;;;;1.75;0.80;;;17.70;51.80;;;;;;5003671;28;20090;-56
2021/11/30 09:58:12;;;;;;;1.65;1.08;;;17.70;51.80;;;;;;5020497;28;20159;-55
2021/11/30 10:00:38;;;;;;;1.58;0.93;;;17.70;51.80;;;;;;5021606;28;20105;-56
2021/11/30 10:03:04;;;;;;;3.45;1.20;;;17.70;51.80;;;;;;5021158;28;20041;-55
2021/11/30 10:05:30;;;;;;;1.85;1.08;;;17.70;51.80;;;;;;5021128;28;20036;-57
2021/11/30 10:07:56;;;;;;;1.23;0.90;;;17.70;51.70;;;;;;5004194;28;20033;-56
2021/11/30 10:10:29;;;;;;;1.77;1.08;;;17.70;51.70;;;;;;5001916;28;20029;-53
2021/11/30 10:13:09;;;;;;;1.70;1.02;;;17.70;51.80;;;;;;5016038;28;20036;-57
2021/11/30 10:15:46;;;;;;;1.40;0.90;;;17.70;51.80;;;;;;5039481;28;20390;-53
2021/11/30 10:18:29;;;;;;;1.77;1.25;;;17.70;51.80;;;;;;5003181;28;20056;-55
2021/11/30 10:20:58;;;;;;;1.35;0.98;;;17.70;51.70;;;;;;5033047;28;20033;-59
2021/11/30 10:23:25;;;;;;;1.60;0.93;;;17.70;51.60;;;;;;5010807;28;20060;-54
2021/11/30 10:25:50;;;;;;;1.42;0.77;;;17.70;51.60;;;;;;5019060;28;20041;-55
2021/11/30 10:28:18;;;;;;;0.95;0.68;;;17.70;51.60;;;;;;5031958;28;20044;-56
2021/11/30 10:30:49;;;;;;;1.67;1.00;;;17.60;51.60;;;;;;5030847;28;20084;-55
2021/11/30 10:33:17;;;;;;;1.58;0.80;;;17.70;51.60;;;;;;5011357;28;20037;-55
2021/11/30 10:35:49;;;;;;;1.15;0.98;;;17.70;51.60;;;;;;5015853;28;20424;-53
2021/11/30 10:38:15;;;;;;;2.75;0.73;;;17.60;51.50;;;;;;5001339;28;20065;-54
2021/11/30 10:40:41;;;;;;;1.50;0.90;;;17.60;51.60;;;;;;5001056;28;20053;-55
2021/11/30 10:43:08;;;;;;;2.03;0.73;;;17.60;51.60;;;;;;5001046;28;20453;-56
2021/11/30 10:45:34;;;;;;;1.90;0.82;;;17.60;51.60;;;;;;5001239;28;20572;-55
2021/11/30 10:48:02;;;;;;;2.15;0.85;;;17.70;51.60;;;;;;5001161;28;20026;-56
2021/11/30 10:50:32;;;;;;;1.40;0.88;;;17.60;52.00;;;;;;4992613;28;20031;-55
2021/11/30 10:53:00;;;;;;;1.17;0.60;;;17.60;51.60;;;;;;5001229;28;20034;-56
2021/11/30 10:55:26;;;;;;;1.55;0.60;;;17.60;51.50;;;;;;5001716;28;20129;-54
2021/11/30 10:57:51;;;;;;;1.58;0.68;;;17.60;51.50;;;;;;5000481;28;20122;-55
2021/11/30 11:00:29;;;;;;;1.33;0.80;;;17.60;51.60;;;;;;4998636;28;20109;-57
2021/11/30 11:03:10;;;;;;;1.88;0.75;;;17.60;51.60;;;;;;4998777;28;20045;-54
2021/11/30 11:05:36;;;;;;;0.85;0.60;;;17.60;51.60;;;;;;5016163;28;20040;-56
2021/11/30 11:08:14;;;;;;;0.93;0.73;;;17.60;51.70;;;;;;5020126;28;20112;-55
2021/11/30 11:11:02;;;;;;;0.95;0.75;;;17.60;51.60;;;;;;4983792;28;20033;-56
2021/11/30 11:13:29;;;;;;;0.55;0.50;;;17.60;51.60;;;;;;4971085;28;20535;-57
2021/11/30 11:15:59;;;;;;;1.23;0.73;;;17.60;51.60;;;;;;5001858;28;20048;-54
2021/11/30 11:18:29;;;;;;;1.25;0.88;;;17.60;51.60;;;;;;5001662;28;20088;-51
2021/11/30 11:21:15;;;;;;;0.70;0.52;;;17.60;51.50;;;;;;4999743;28;20029;-52
2021/11/30 11:23:42;;;;;;;1.92;0.68;;;17.60;51.60;;;;;;4994118;28;20021;-57
2021/11/30 11:26:18;;;;;;;0.57;0.40;;;17.60;51.50;;;;;;5007036;28;20042;-55
2021/11/30 11:28:43;;;;;;;1.40;0.60;;;17.60;51.50;;;;;;5000525;28;20033;-53
2021/11/30 11:31:09;;;;;;;1.00;0.60;;;17.60;51.40;;;;;;4992960;28;20030;-52
2021/11/30 11:33:34;;;;;;;1.30;0.60;;;17.60;51.50;;;;;;4999146;28;20058;-57
2021/11/30 11:36:00;;;;;;;0.88;0.60;;;17.60;51.50;;;;;;4999921;28;20042;-55
2021/11/30 11:38:26;;;;;;;1.00;0.60;;;17.60;51.50;;;;;;4984489;28;20057;-56
2021/11/30 11:40:51;;;;;;;0.95;0.70;;;17.60;51.50;;;;;;4985673;28;20117;-53
2021/11/30 11:43:17;;;;;;;0.32;0.32;;;17.60;51.40;;;;;;5019546;28;20030;-52
2021/11/30 11:45:43;;;;;;;2.03;0.52;;;17.60;51.40;;;;;;5002021;28;20371;-54
2021/11/30 11:48:09;;;;;;;2.53;0.70;;;17.60;51.40;;;;;;5020502;28;20034;-54
2021/11/30 11:50:48;;;;;;;1.25;0.60;;;17.60;51.40;;;;;;5019256;28;20033;-54
2021/11/30 11:53:31;;;;;;;0.55;0.50;;;17.60;51.40;;;;;;5004129;28;20034;-57
2021/11/30 11:56:16;;;;;;;2.00;0.60;;;17.60;51.40;;;;;;5004943;28;20055;-57
2021/11/30 11:58:42;;;;;;;1.33;0.60;;;17.60;51.40;;;;;;5019945;28;20052;-56
2021/11/30 12:01:28;;;;;;;0.40;0.30;;;17.60;51.40;;;;;;5019207;28;20033;-54
2021/11/30 12:03:59;;;;;;;0.52;0.40;;;17.60;51.50;;;;;;5019176;28;20053;-55
2021/11/30 12:06:26;;;;;;;0.55;0.40;;;17.50;51.40;;;;;;5019748;28;20040;-52
2021/11/30 12:09:15;;;;;;;0.50;0.40;;;17.50;51.40;;;;;;5020154;28;20068;-54
2021/11/30 12:11:49;;;;;;;0.60;0.40;;;17.50;51.30;;;;;;4995865;28;20034;-56
2021/11/30 12:14:22;;;;;;;0.40;0.40;;;17.50;51.30;;;;;;5001067;28;20034;-55
2021/11/30 12:17:04;;;;;;;0.60;0.52;;;17.50;51.50;;;;;;5000811;28;20050;-56
2021/11/30 12:19:31;;;;;;;0.80;0.40;;;17.50;51.40;;;;;;5001215;28;20030;-56
2021/11/30 12:21:57;;;;;;;0.80;0.57;;;17.50;51.30;;;;;;4987907;28;20090;-55
2021/11/30 12:24:47;;;;;;;0.47;0.40;;;17.50;51.30;;;;;;4979701;28;20137;-56
2021/11/30 12:27:22;;;;;;;0.40;0.30;;;17.50;51.30;;;;;;5026047;28;20045;-54
2021/11/30 12:29:48;;;;;;;0.45;0.40;;;17.50;51.30;;;;;;5001151;28;20026;-57
2021/11/30 12:32:22;;;;;;;0.40;0.40;;;17.50;51.30;;;;;;5004341;28;20447;-55
2021/11/30 12:34:49;;;;;;;0.52;0.40;;;17.50;51.30;;;;;;5000670;28;20093;-56
2021/11/30 12:37:25;;;;;;;0.50;0.40;;;17.50;51.40;;;;;;5023700;28;20033;-52
2021/11/30 12:40:11;;;;;;;0.82;0.45;;;17.50;51.40;;;;;;5022889;28;20038;-54
2021/11/30 12:42:40;;;;;;;0.60;0.50;;;17.50;51.30;;;;;;5023090;28;20672;-56
2021/11/30 12:45:10;;;;;;;0.95;0.40;;;17.50;51.30;;;;;;5023847;28;20040;-55
2021/11/30 12:47:36;;;;;;;0.65;0.40;;;17.40;51.30;;;;;;5023798;28;20117;-57
2021/11/30 12:50:02;;;;;;;0.80;0.45;;;17.40;51.40;;;;;;5022807;28;20566;-57
2021/11/30 12:52:32;;;;;;;0.35;0.35;;;17.40;51.40;;;;;;5005186;28;20711;-56
2021/11/30 12:55:17;;;;;;;0.77;0.40;;;17.40;51.40;;;;;;5023452;28;20061;-56
2021/11/30 12:57:43;;;;;;;0.30;0.30;;;17.40;51.40;;;;;;5003228;28;20036;-54
2021/11/30 13:00:27;;;;;;;0.43;0.20;;;17.40;51.40;;;;;;4988659;28;20037;-55